Doylestown, WI

10:31 PM CDT on March 29, 2017 (GMT -0500)
Fall River | | Change Station

Elev 860 ft 43.39 °N, 89.04 °W | Updated 25 seconds ago

Rain
Rain
37.7 °F
Feels Like 38 °F
N
0.0
Wind Variable Wind from WSW

Today
High -- | Low -- °F
--% Chance of Precip.
Yesterday
High -- | Low -- °F
Precip. -- in
Pressure 30.16 in
Visibility 7.0 miles
Clouds Overcast 4400 ft
Windchill 38 °F
Dew Point 32 °F
Humidity 81%
Rainfall 0.00 in
Snow Depth Not available.
6:43 AM 7:20 PM
Waxing Crescent, 6% visible
METAR KMSN 300253Z 08009KT 7SM -RA OVC044 03/02 A3014 RMK AO2 SLP213 P0004 60016 T00330017 56013
Pressure 30.16 in
Visibility 7.0 miles
Clouds Overcast 4400 ft
Windchill 38 °F
Dew Point 32 °F
Humidity 81%
Rainfall 0.00 in
Snow Depth Not available.
6:43 AM 7:20 PM
Waxing Crescent, 6% visible
METAR KMSN 300253Z 08009KT 7SM -RA OVC044 03/02 A3014 RMK AO2 SLP213 P0004 60016 T00330017 56013

Get Severe Weather Alerts

Thanks for signing up!

Be on the lookout for a verification email in your inbox.

You'll start receiving the daily forecast at 8 AM.

×

10-Day Weather Forecast

Almanac

Astronomy

Mar. 29, 2017 Rise Set
Actual Time
Civil Twilight
Nautical Twilight
Astronomical Twilight
Moon
Length of Visible Light
Length of Day
Tomorrow will be .
, % of the Moon is Illuminated

Today's Extremes

State Highs State Lows

Community

WunderPhotos

Upload Photos

1,962,540 photos uploaded!

WunderBlog® & News

Nearby

Air Quality

  Air Quality AQ Index Pollutant
Not available.

Snow Depth

Station Depth Elevation

Earthquake Activity

City Distance Mag. Time & Date
Minimum magnitude displayed is 2.5.

Earthquake Activity

City Distance Mag. Time & Date
Minimum magnitude displayed is 2.5.

Coastal Water Temperatures

Place Temperature

Stations

Nearby Weather Stations

Station Location Temp. Windchill Dew Point Humidity Wind Precip. Elev Updated Type
                   

Watches & Warnings

There are currently no watches in effect.